Perkins, MI

6:26 PM EST on November 26, 2014 (GMT -0500)
Sawyer International | Change Station
CLOSE
Current Station
Airport
Location: Gwinn,
Elevation: 1220 ft
Nearby Weather Stations

Elev 1220 ft 46.34 °N, 87.40 °W | Updated 36 minutes ago

Overcast
Overcast
23 °F
Feels Like 17 °F
N
5
Wind Variable Wind from West

Today
High -- | Low -- °F
--% Chance of Precip.
Yesterday
High -- | Low -- °F
Precip. -- in
8:03 AM 5:07 PM
Waxing Crescent, 23% visible
Pressure 30.12 in
Visibility 10.0 miles
Clouds Scattered Clouds 1700 ft
Scattered Clouds 3300 ft
Overcast 9000 ft
Windchill 17 °F
Dew Point 18 °F
Humidity 80%
Rainfall 0.00 in
Snow Depth Not available.
UV 0 out of 12
Pollen .10 out of 12
Air Quality Not available.
Flu Activity Not available.
METAR KSAW 262250Z 28004KT 10SM SCT017 SCT033 OVC090 M05/M08 A3012

More Conditions Fewer Conditions

Pressure 30.12 in
Visibility 10.0 miles
Clouds Scattered Clouds 1700 ft
Scattered Clouds 3300 ft
Overcast 9000 ft
Windchill 17 °F
Dew Point 18 °F
Humidity 80%
Rainfall 0.00 in
Snow Depth Not available.
UV 0 out of 12
Pollen .10 out of 12
Air Quality Not available.
Flu Activity Not available.
METAR KSAW 262250Z 28004KT 10SM SCT017 SCT033 OVC090 M05/M08 A3012

More Conditions Fewer Conditions

10-Day Weather Forecast

Almanac

Astronomy

Nov. 26, 2014 Rise Set
Actual Time
Civil Twilight
Nautical Twilight
Astronomical Twilight
Moon
Length of Visible Light
Length of Day
Tomorrow will be .
, % of the Moon is Illuminated

Today's Extremes

State Highs State Lows

Community

WunderPhotos

Upload Photos

1,773,919 photos uploaded!

WunderBlogs® & News

Nearby

Air Quality

  Air Quality AQ Index Pollutant
Not available.

Snow Depth

Station Depth Elevation

Earthquake Activity

City Distance Mag. Time & Date
Minimum magnitude displayed is 2.5.

Coastal Water Temperatures

Place Temperature

Nearby Weather Stations